sensor_id;sensor_type;location;lat;lon;timestamp;temperature;humidity
3051;DHT22;1535;51.098;6.414;2023-03-23T00:01:14;13.00;99.90
3051;DHT22;1535;51.098;6.414;2023-03-23T00:03:45;13.00;99.90
3051;DHT22;1535;51.098;6.414;2023-03-23T00:06:12;13.00;99.90
3051;DHT22;1535;51.098;6.414;2023-03-23T00:08:43;12.90;99.90
3051;DHT22;1535;51.098;6.414;2023-03-23T00:11:14;12.90;99.90
3051;DHT22;1535;51.098;6.414;2023-03-23T00:13:42;13.00;99.90
3051;DHT22;1535;51.098;6.414;2023-03-23T00:16:10;12.90;99.90
3051;DHT22;1535;51.098;6.414;2023-03-23T00:18:44;12.90;99.90
3051;DHT22;1535;51.098;6.414;2023-03-23T00:21:11;12.90;99.90
3051;DHT22;1535;51.098;6.414;2023-03-23T00:23:39;13.00;99.90
3051;DHT22;1535;51.098;6.414;2023-03-23T00:26:11;13.00;99.90
3051;DHT22;1535;51.098;6.414;2023-03-23T00:28:40;13.00;99.90
3051;DHT22;1535;51.098;6.414;2023-03-23T00:31:08;12.90;99.90
3051;DHT22;1535;51.098;6.414;2023-03-23T00:33:37;12.90;99.90
3051;DHT22;1535;51.098;6.414;2023-03-23T00:36:06;12.90;99.90
3051;DHT22;1535;51.098;6.414;2023-03-23T00:38:35;12.90;99.90
3051;DHT22;1535;51.098;6.414;2023-03-23T00:41:02;12.90;99.90
3051;DHT22;1535;51.098;6.414;2023-03-23T00:43:30;12.90;99.90
3051;DHT22;1535;51.098;6.414;2023-03-23T00:45:59;12.90;99.90
3051;DHT22;1535;51.098;6.414;2023-03-23T00:48:28;12.90;99.90
3051;DHT22;1535;51.098;6.414;2023-03-23T00:50:56;13.00;99.90
3051;DHT22;1535;51.098;6.414;2023-03-23T00:53:23;13.00;99.90
3051;DHT22;1535;51.098;6.414;2023-03-23T00:55:50;13.00;99.90
3051;DHT22;1535;51.098;6.414;2023-03-23T00:58:18;13.00;99.90
3051;DHT22;1535;51.098;6.414;2023-03-23T01:00:44;12.90;99.90
3051;DHT22;1535;51.098;6.414;2023-03-23T01:03:12;12.90;99.90
3051;DHT22;1535;51.098;6.414;2023-03-23T01:05:44;12.90;99.90
3051;DHT22;1535;51.098;6.414;2023-03-23T01:08:13;12.90;99.90
3051;DHT22;1535;51.098;6.414;2023-03-23T01:10:41;13.00;99.90
3051;DHT22;1535;51.098;6.414;2023-03-23T01:13:08;12.90;99.90
3051;DHT22;1535;51.098;6.414;2023-03-23T01:15:35;12.90;99.90
3051;DHT22;1535;51.098;6.414;2023-03-23T01:18:02;12.90;99.90
3051;DHT22;1535;51.098;6.414;2023-03-23T01:20:31;12.80;99.90
3051;DHT22;1535;51.098;6.414;2023-03-23T01:22:58;12.90;99.90
3051;DHT22;1535;51.098;6.414;2023-03-23T01:25:27;12.80;99.90
3051;DHT22;1535;51.098;6.414;2023-03-23T01:27:54;12.50;99.90
3051;DHT22;1535;51.098;6.414;2023-03-23T01:30:22;12.30;99.90
3051;DHT22;1535;51.098;6.414;2023-03-23T01:32:49;12.10;99.90
3051;DHT22;1535;51.098;6.414;2023-03-23T01:35:17;11.90;99.90
3051;DHT22;1535;51.098;6.414;2023-03-23T01:37:46;11.80;99.90
3051;DHT22;1535;51.098;6.414;2023-03-23T01:40:15;11.80;99.90
3051;DHT22;1535;51.098;6.414;2023-03-23T01:42:42;11.70;99.90
3051;DHT22;1535;51.098;6.414;2023-03-23T01:45:30;11.70;99.90
3051;DHT22;1535;51.098;6.414;2023-03-23T01:48:04;11.60;99.90
3051;DHT22;1535;51.098;6.414;2023-03-23T01:50:37;11.60;99.90
3051;DHT22;1535;51.098;6.414;2023-03-23T01:53:10;11.60;99.90
3051;DHT22;1535;51.098;6.414;2023-03-23T01:55:40;11.60;99.90
3051;DHT22;1535;51.098;6.414;2023-03-23T01:58:08;11.50;99.90
3051;DHT22;1535;51.098;6.414;2023-03-23T02:00:38;11.50;99.90
3051;DHT22;1535;51.098;6.414;2023-03-23T02:03:06;11.50;99.90
3051;DHT22;1535;51.098;6.414;2023-03-23T02:05:37;11.50;99.90
3051;DHT22;1535;51.098;6.414;2023-03-23T02:08:05;11.50;99.90
3051;DHT22;1535;51.098;6.414;2023-03-23T02:10:36;11.40;99.90
3051;DHT22;1535;51.098;6.414;2023-03-23T02:13:05;11.40;99.90
3051;DHT22;1535;51.098;6.414;2023-03-23T02:15:43;11.40;99.90
3051;DHT22;1535;51.098;6.414;2023-03-23T02:18:20;11.40;99.90
3051;DHT22;1535;51.098;6.414;2023-03-23T02:21:07;11.30;99.90
3051;DHT22;1535;51.098;6.414;2023-03-23T02:23:54;11.30;99.90
3051;DHT22;1535;51.098;6.414;2023-03-23T02:26:35;11.30;99.90
3051;DHT22;1535;51.098;6.414;2023-03-23T02:29:18;11.30;99.90
3051;DHT22;1535;51.098;6.414;2023-03-23T02:31:59;11.30;99.90
3051;DHT22;1535;51.098;6.414;2023-03-23T02:34:35;11.30;99.90
3051;DHT22;1535;51.098;6.414;2023-03-23T02:37:08;11.30;99.90
3051;DHT22;1535;51.098;6.414;2023-03-23T02:39:40;11.30;99.90
3051;DHT22;1535;51.098;6.414;2023-03-23T02:42:10;11.30;99.90
3051;DHT22;1535;51.098;6.414;2023-03-23T02:44:41;11.30;99.90
3051;DHT22;1535;51.098;6.414;2023-03-23T02:47:14;11.30;99.90
3051;DHT22;1535;51.098;6.414;2023-03-23T02:49:45;11.40;99.90
3051;DHT22;1535;51.098;6.414;2023-03-23T02:52:17;11.40;99.90
3051;DHT22;1535;51.098;6.414;2023-03-23T02:54:47;11.40;99.90
3051;DHT22;1535;51.098;6.414;2023-03-23T02:57:14;11.50;99.90
3051;DHT22;1535;51.098;6.414;2023-03-23T02:59:41;11.50;99.90
3051;DHT22;1535;51.098;6.414;2023-03-23T03:02:12;11.60;99.90
3051;DHT22;1535;51.098;6.414;2023-03-23T03:04:44;11.60;99.90
3051;DHT22;1535;51.098;6.414;2023-03-23T03:07:23;11.60;99.90
3051;DHT22;1535;51.098;6.414;2023-03-23T03:09:55;11.70;99.90
3051;DHT22;1535;51.098;6.414;2023-03-23T03:12:31;11.70;99.90
3051;DHT22;1535;51.098;6.414;2023-03-23T03:15:09;11.80;99.90
3051;DHT22;1535;51.098;6.414;2023-03-23T03:17:41;11.80;99.90
3051;DHT22;1535;51.098;6.414;2023-03-23T03:20:12;11.90;99.90
3051;DHT22;1535;51.098;6.414;2023-03-23T03:22:42;11.90;99.90
3051;DHT22;1535;51.098;6.414;2023-03-23T03:25:11;11.90;99.90
3051;DHT22;1535;51.098;6.414;2023-03-23T03:27:40;11.90;99.90
3051;DHT22;1535;51.098;6.414;2023-03-23T03:30:09;11.90;99.90
3051;DHT22;1535;51.098;6.414;2023-03-23T03:32:43;11.90;99.90
3051;DHT22;1535;51.098;6.414;2023-03-23T03:35:15;11.90;99.90
3051;DHT22;1535;51.098;6.414;2023-03-23T03:37:43;12.00;99.90
3051;DHT22;1535;51.098;6.414;2023-03-23T03:40:12;12.00;99.90
3051;DHT22;1535;51.098;6.414;2023-03-23T03:42:41;12.10;99.90
3051;DHT22;1535;51.098;6.414;2023-03-23T03:45:10;12.10;99.90
3051;DHT22;1535;51.098;6.414;2023-03-23T03:47:38;12.10;99.90
3051;DHT22;1535;51.098;6.414;2023-03-23T03:50:06;12.10;99.90
3051;DHT22;1535;51.098;6.414;2023-03-23T03:52:35;12.10;99.90
3051;DHT22;1535;51.098;6.414;2023-03-23T03:55:04;12.10;99.90
3051;DHT22;1535;51.098;6.414;2023-03-23T03:57:32;12.20;99.90
3051;DHT22;1535;51.098;6.414;2023-03-23T03:59:59;12.20;99.90
3051;DHT22;1535;51.098;6.414;2023-03-23T04:02:31;12.20;99.90
3051;DHT22;1535;51.098;6.414;2023-03-23T04:04:58;12.20;99.90
3051;DHT22;1535;51.098;6.414;2023-03-23T04:07:30;12.20;99.90
3051;DHT22;1535;51.098;6.414;2023-03-23T04:09:58;12.20;99.90
3051;DHT22;1535;51.098;6.414;2023-03-23T04:12:25;12.30;99.90
3051;DHT22;1535;51.098;6.414;2023-03-23T04:14:52;12.30;99.90
3051;DHT22;1535;51.098;6.414;2023-03-23T04:17:18;12.30;99.90
3051;DHT22;1535;51.098;6.414;2023-03-23T04:19:46;12.30;99.90
3051;DHT22;1535;51.098;6.414;2023-03-23T04:22:13;12.20;99.90
3051;DHT22;1535;51.098;6.414;2023-03-23T04:24:42;12.30;99.90
3051;DHT22;1535;51.098;6.414;2023-03-23T04:27:10;12.30;99.90
3051;DHT22;1535;51.098;6.414;2023-03-23T04:29:38;12.20;99.90
3051;DHT22;1535;51.098;6.414;2023-03-23T04:32:05;12.20;99.90
3051;DHT22;1535;51.098;6.414;2023-03-23T04:34:32;12.20;99.90
3051;DHT22;1535;51.098;6.414;2023-03-23T04:37:01;12.20;99.90
3051;DHT22;1535;51.098;6.414;2023-03-23T04:39:27;12.20;99.90
3051;DHT22;1535;51.098;6.414;2023-03-23T04:41:58;12.20;99.90
3051;DHT22;1535;51.098;6.414;2023-03-23T04:44:28;12.20;99.90
3051;DHT22;1535;51.098;6.414;2023-03-23T04:47:00;12.30;99.90
3051;DHT22;1535;51.098;6.414;2023-03-23T04:49:28;12.30;99.90
3051;DHT22;1535;51.098;6.414;2023-03-23T04:51:55;12.30;99.90
3051;DHT22;1535;51.098;6.414;2023-03-23T04:54:22;12.30;99.90
3051;DHT22;1535;51.098;6.414;2023-03-23T04:56:49;12.30;99.90
3051;DHT22;1535;51.098;6.414;2023-03-23T04:59:16;12.30;99.90
3051;DHT22;1535;51.098;6.414;2023-03-23T05:01:44;12.30;99.90
3051;DHT22;1535;51.098;6.414;2023-03-23T05:04:11;12.20;99.90
3051;DHT22;1535;51.098;6.414;2023-03-23T05:06:42;12.30;99.90
3051;DHT22;1535;51.098;6.414;2023-03-23T05:09:10;12.30;99.90
3051;DHT22;1535;51.098;6.414;2023-03-23T05:11:37;12.30;99.90
3051;DHT22;1535;51.098;6.414;2023-03-23T05:14:05;12.30;99.90
3051;DHT22;1535;51.098;6.414;2023-03-23T05:16:32;12.30;99.90
3051;DHT22;1535;51.098;6.414;2023-03-23T05:19:03;12.20;99.90
3051;DHT22;1535;51.098;6.414;2023-03-23T05:21:31;12.20;99.90
3051;DHT22;1535;51.098;6.414;2023-03-23T05:23:58;12.20;99.90
3051;DHT22;1535;51.098;6.414;2023-03-23T05:26:27;12.20;99.90
3051;DHT22;1535;51.098;6.414;2023-03-23T05:28:55;12.20;99.90
3051;DHT22;1535;51.098;6.414;2023-03-23T05:31:22;12.20;99.90
3051;DHT22;1535;51.098;6.414;2023-03-23T05:33:49;12.10;99.90
3051;DHT22;1535;51.098;6.414;2023-03-23T05:36:18;12.20;99.90
3051;DHT22;1535;51.098;6.414;2023-03-23T05:38:45;12.10;99.90
3051;DHT22;1535;51.098;6.414;2023-03-23T05:41:13;12.10;99.90
3051;DHT22;1535;51.098;6.414;2023-03-23T05:43:40;12.10;99.90
3051;DHT22;1535;51.098;6.414;2023-03-23T05:46:07;12.00;99.90
3051;DHT22;1535;51.098;6.414;2023-03-23T05:48:34;12.00;99.90
3051;DHT22;1535;51.098;6.414;2023-03-23T05:51:02;12.00;99.90
3051;DHT22;1535;51.098;6.414;2023-03-23T05:53:31;12.00;99.90
3051;DHT22;1535;51.098;6.414;2023-03-23T05:56:01;12.00;99.90
3051;DHT22;1535;51.098;6.414;2023-03-23T05:58:28;12.00;99.90
3051;DHT22;1535;51.098;6.414;2023-03-23T06:00:56;12.00;99.90
3051;DHT22;1535;51.098;6.414;2023-03-23T06:03:22;12.00;99.90
3051;DHT22;1535;51.098;6.414;2023-03-23T06:05:49;12.00;99.90
3051;DHT22;1535;51.098;6.414;2023-03-23T06:08:16;12.10;99.90
3051;DHT22;1535;51.098;6.414;2023-03-23T06:10:44;12.10;99.90
3051;DHT22;1535;51.098;6.414;2023-03-23T06:13:13;12.20;99.90
3051;DHT22;1535;51.098;6.414;2023-03-23T06:15:40;12.20;99.90
3051;DHT22;1535;51.098;6.414;2023-03-23T06:18:07;12.30;99.90
3051;DHT22;1535;51.098;6.414;2023-03-23T06:20:34;12.20;99.90
3051;DHT22;1535;51.098;6.414;2023-03-23T06:23:02;12.30;99.90
3051;DHT22;1535;51.098;6.414;2023-03-23T06:25:29;12.40;99.90
3051;DHT22;1535;51.098;6.414;2023-03-23T06:27:58;12.40;99.90
3051;DHT22;1535;51.098;6.414;2023-03-23T06:30:25;12.50;99.90
3051;DHT22;1535;51.098;6.414;2023-03-23T06:32:54;12.50;99.90
3051;DHT22;1535;51.098;6.414;2023-03-23T06:35:22;12.50;99.90
3051;DHT22;1535;51.098;6.414;2023-03-23T06:37:49;12.50;99.90
3051;DHT22;1535;51.098;6.414;2023-03-23T06:40:17;12.50;99.90
3051;DHT22;1535;51.098;6.414;2023-03-23T06:42:45;12.50;99.90
3051;DHT22;1535;51.098;6.414;2023-03-23T06:45:13;12.60;99.90
3051;DHT22;1535;51.098;6.414;2023-03-23T06:47:40;12.60;99.90
3051;DHT22;1535;51.098;6.414;2023-03-23T06:50:07;12.70;99.90
3051;DHT22;1535;51.098;6.414;2023-03-23T06:52:34;12.70;99.90
3051;DHT22;1535;51.098;6.414;2023-03-23T06:55:01;12.60;99.90
3051;DHT22;1535;51.098;6.414;2023-03-23T06:57:28;12.60;99.90
3051;DHT22;1535;51.098;6.414;2023-03-23T06:59:55;12.70;99.90
3051;DHT22;1535;51.098;6.414;2023-03-23T07:02:23;12.70;99.90
3051;DHT22;1535;51.098;6.414;2023-03-23T07:04:51;12.70;99.90
3051;DHT22;1535;51.098;6.414;2023-03-23T07:07:19;12.80;99.90
3051;DHT22;1535;51.098;6.414;2023-03-23T07:09:46;12.80;99.90
3051;DHT22;1535;51.098;6.414;2023-03-23T07:12:13;12.90;99.90
3051;DHT22;1535;51.098;6.414;2023-03-23T07:14:41;12.90;99.90
3051;DHT22;1535;51.098;6.414;2023-03-23T07:17:08;13.00;99.90
3051;DHT22;1535;51.098;6.414;2023-03-23T07:19:36;13.10;99.90
3051;DHT22;1535;51.098;6.414;2023-03-23T07:22:04;13.10;99.90
3051;DHT22;1535;51.098;6.414;2023-03-23T07:24:31;12.90;99.90
3051;DHT22;1535;51.098;6.414;2023-03-23T07:26:58;13.00;99.90
3051;DHT22;1535;51.098;6.414;2023-03-23T07:29:24;13.10;99.90
3051;DHT22;1535;51.098;6.414;2023-03-23T07:31:52;13.10;99.90
3051;DHT22;1535;51.098;6.414;2023-03-23T07:34:19;13.20;99.90
3051;DHT22;1535;51.098;6.414;2023-03-23T07:36:47;13.10;99.90
3051;DHT22;1535;51.098;6.414;2023-03-23T07:39:14;13.10;99.90
3051;DHT22;1535;51.098;6.414;2023-03-23T07:41:42;13.20;99.90
3051;DHT22;1535;51.098;6.414;2023-03-23T07:44:09;13.40;99.90
3051;DHT22;1535;51.098;6.414;2023-03-23T07:46:35;13.50;99.90
3051;DHT22;1535;51.098;6.414;2023-03-23T07:49:02;13.40;99.90
3051;DHT22;1535;51.098;6.414;2023-03-23T07:51:31;13.40;99.90
3051;DHT22;1535;51.098;6.414;2023-03-23T07:53:59;13.50;99.90
3051;DHT22;1535;51.098;6.414;2023-03-23T07:56:28;13.50;99.90
3051;DHT22;1535;51.098;6.414;2023-03-23T07:58:55;13.60;99.90
3051;DHT22;1535;51.098;6.414;2023-03-23T08:01:21;13.60;99.90
3051;DHT22;1535;51.098;6.414;2023-03-23T08:03:49;13.60;99.90
3051;DHT22;1535;51.098;6.414;2023-03-23T08:06:16;13.60;99.90
3051;DHT22;1535;51.098;6.414;2023-03-23T08:08:44;13.60;99.90
3051;DHT22;1535;51.098;6.414;2023-03-23T08:11:13;13.80;99.90
3051;DHT22;1535;51.098;6.414;2023-03-23T08:13:41;13.80;99.90
3051;DHT22;1535;51.098;6.414;2023-03-23T08:16:08;13.90;99.90
3051;DHT22;1535;51.098;6.414;2023-03-23T08:18:35;13.70;99.90
3051;DHT22;1535;51.098;6.414;2023-03-23T08:21:03;13.80;99.90
3051;DHT22;1535;51.098;6.414;2023-03-23T08:23:30;13.90;99.90
3051;DHT22;1535;51.098;6.414;2023-03-23T08:25:58;13.90;99.90
3051;DHT22;1535;51.098;6.414;2023-03-23T08:28:26;14.10;99.90
3051;DHT22;1535;51.098;6.414;2023-03-23T08:30:53;14.30;99.90
3051;DHT22;1535;51.098;6.414;2023-03-23T08:33:20;14.40;99.90
3051;DHT22;1535;51.098;6.414;2023-03-23T08:35:54;14.50;99.90
3051;DHT22;1535;51.098;6.414;2023-03-23T08:38:22;14.50;99.90
3051;DHT22;1535;51.098;6.414;2023-03-23T08:40:49;14.60;99.90
3051;DHT22;1535;51.098;6.414;2023-03-23T08:43:18;14.70;99.90
3051;DHT22;1535;51.098;6.414;2023-03-23T08:45:46;14.70;99.90
3051;DHT22;1535;51.098;6.414;2023-03-23T08:48:13;14.60;99.90
3051;DHT22;1535;51.098;6.414;2023-03-23T08:50:40;14.70;99.90
3051;DHT22;1535;51.098;6.414;2023-03-23T08:53:07;14.80;99.90
3051;DHT22;1535;51.098;6.414;2023-03-23T08:55:34;14.80;99.90
3051;DHT22;1535;51.098;6.414;2023-03-23T08:58:01;14.90;99.90
3051;DHT22;1535;51.098;6.414;2023-03-23T09:00:29;14.90;99.90
3051;DHT22;1535;51.098;6.414;2023-03-23T09:02:57;14.90;99.90
3051;DHT22;1535;51.098;6.414;2023-03-23T09:05:26;15.00;99.90
3051;DHT22;1535;51.098;6.414;2023-03-23T09:07:55;14.90;99.90
3051;DHT22;1535;51.098;6.414;2023-03-23T09:10:25;14.90;99.90
3051;DHT22;1535;51.098;6.414;2023-03-23T09:12:53;15.00;99.90
3051;DHT22;1535;51.098;6.414;2023-03-23T09:15:20;14.90;99.90
3051;DHT22;1535;51.098;6.414;2023-03-23T09:17:49;14.80;99.90
3051;DHT22;1535;51.098;6.414;2023-03-23T09:20:20;14.80;99.90
3051;DHT22;1535;51.098;6.414;2023-03-23T09:22:49;14.80;99.90
3051;DHT22;1535;51.098;6.414;2023-03-23T09:25:19;14.80;99.90
3051;DHT22;1535;51.098;6.414;2023-03-23T09:27:48;14.50;99.90
3051;DHT22;1535;51.098;6.414;2023-03-23T09:30:19;14.40;99.90
3051;DHT22;1535;51.098;6.414;2023-03-23T09:32:47;14.30;99.90
3051;DHT22;1535;51.098;6.414;2023-03-23T09:35:15;14.20;99.90
3051;DHT22;1535;51.098;6.414;2023-03-23T09:37:44;14.20;99.90
3051;DHT22;1535;51.098;6.414;2023-03-23T09:40:14;14.30;99.90
3051;DHT22;1535;51.098;6.414;2023-03-23T09:43:13;14.20;99.90
3051;DHT22;1535;51.098;6.414;2023-03-23T09:45:49;14.20;99.90
3051;DHT22;1535;51.098;6.414;2023-03-23T09:48:36;14.10;99.90
3051;DHT22;1535;51.098;6.414;2023-03-23T09:51:11;13.70;99.90
3051;DHT22;1535;51.098;6.414;2023-03-23T09:53:45;13.00;99.90
3051;DHT22;1535;51.098;6.414;2023-03-23T09:56:15;12.40;99.90
3051;DHT22;1535;51.098;6.414;2023-03-23T09:58:46;12.00;99.90
3051;DHT22;1535;51.098;6.414;2023-03-23T10:01:19;11.60;99.90
3051;DHT22;1535;51.098;6.414;2023-03-23T10:03:46;11.20;99.90
3051;DHT22;1535;51.098;6.414;2023-03-23T10:06:16;10.90;99.90
3051;DHT22;1535;51.098;6.414;2023-03-23T10:08:47;10.70;99.90
3051;DHT22;1535;51.098;6.414;2023-03-23T10:11:25;10.50;99.90
3051;DHT22;1535;51.098;6.414;2023-03-23T10:14:08;10.40;99.90
3051;DHT22;1535;51.098;6.414;2023-03-23T10:16:40;10.40;99.90
3051;DHT22;1535;51.098;6.414;2023-03-23T10:19:11;10.40;99.90
3051;DHT22;1535;51.098;6.414;2023-03-23T10:21:42;10.50;99.90
3051;DHT22;1535;51.098;6.414;2023-03-23T10:24:15;10.50;99.90
3051;DHT22;1535;51.098;6.414;2023-03-23T10:26:48;10.50;99.90
3051;DHT22;1535;51.098;6.414;2023-03-23T10:29:19;10.50;99.90
3051;DHT22;1535;51.098;6.414;2023-03-23T10:31:51;10.50;99.90
3051;DHT22;1535;51.098;6.414;2023-03-23T10:34:22;10.70;99.90
3051;DHT22;1535;51.098;6.414;2023-03-23T10:36:56;10.70;99.90
3051;DHT22;1535;51.098;6.414;2023-03-23T10:39:29;10.80;99.90
3051;DHT22;1535;51.098;6.414;2023-03-23T10:41:56;10.80;99.90
3051;DHT22;1535;51.098;6.414;2023-03-23T10:44:28;10.80;99.90
3051;DHT22;1535;51.098;6.414;2023-03-23T10:47:00;10.90;99.90
3051;DHT22;1535;51.098;6.414;2023-03-23T10:49:32;11.10;99.90
3051;DHT22;1535;51.098;6.414;2023-03-23T10:52:06;11.00;99.90
3051;DHT22;1535;51.098;6.414;2023-03-23T10:54:37;11.00;99.90
3051;DHT22;1535;51.098;6.414;2023-03-23T10:57:13;10.90;99.90
3051;DHT22;1535;51.098;6.414;2023-03-23T10:59:40;10.70;99.90
3051;DHT22;1535;51.098;6.414;2023-03-23T11:02:13;10.60;99.90
3051;DHT22;1535;51.098;6.414;2023-03-23T11:04:45;10.50;99.90
3051;DHT22;1535;51.098;6.414;2023-03-23T11:07:20;10.60;99.90
3051;DHT22;1535;51.098;6.414;2023-03-23T11:09:54;10.60;99.90
3051;DHT22;1535;51.098;6.414;2023-03-23T11:12:21;10.70;99.90
3051;DHT22;1535;51.098;6.414;2023-03-23T11:14:48;10.80;99.90
3051;DHT22;1535;51.098;6.414;2023-03-23T11:17:21;10.90;99.90
3051;DHT22;1535;51.098;6.414;2023-03-23T11:19:49;11.10;99.90
3051;DHT22;1535;51.098;6.414;2023-03-23T11:22:20;11.50;99.90
3051;DHT22;1535;51.098;6.414;2023-03-23T11:24:53;11.90;99.90
3051;DHT22;1535;51.098;6.414;2023-03-23T11:27:21;11.90;99.90
3051;DHT22;1535;51.098;6.414;2023-03-23T11:29:51;11.80;99.90
3051;DHT22;1535;51.098;6.414;2023-03-23T11:32:22;11.80;99.90
3051;DHT22;1535;51.098;6.414;2023-03-23T11:34:54;11.90;99.90
3051;DHT22;1535;51.098;6.414;2023-03-23T11:37:27;11.80;99.90
3051;DHT22;1535;51.098;6.414;2023-03-23T11:39:59;12.00;99.90
3051;DHT22;1535;51.098;6.414;2023-03-23T11:42:36;12.30;99.90
3051;DHT22;1535;51.098;6.414;2023-03-23T11:45:14;12.80;99.90
3051;DHT22;1535;51.098;6.414;2023-03-23T11:47:49;13.10;99.90
3051;DHT22;1535;51.098;6.414;2023-03-23T11:50:19;13.20;99.90
3051;DHT22;1535;51.098;6.414;2023-03-23T11:52:52;13.30;99.90
3051;DHT22;1535;51.098;6.414;2023-03-23T11:55:26;13.60;99.90
3051;DHT22;1535;51.098;6.414;2023-03-23T11:57:55;13.60;99.90
3051;DHT22;1535;51.098;6.414;2023-03-23T12:00:23;13.80;99.90
3051;DHT22;1535;51.098;6.414;2023-03-23T12:03:33;13.70;99.90
3051;DHT22;1535;51.098;6.414;2023-03-23T12:06:06;13.50;99.90
3051;DHT22;1535;51.098;6.414;2023-03-23T12:08:49;13.50;99.90
3051;DHT22;1535;51.098;6.414;2023-03-23T12:11:24;13.20;99.90
3051;DHT22;1535;51.098;6.414;2023-03-23T12:14:02;13.10;99.90
3051;DHT22;1535;51.098;6.414;2023-03-23T12:16:41;12.60;99.90
3051;DHT22;1535;51.098;6.414;2023-03-23T12:19:15;12.50;99.90
3051;DHT22;1535;51.098;6.414;2023-03-23T12:21:51;12.60;99.90
3051;DHT22;1535;51.098;6.414;2023-03-23T12:24:28;12.90;99.90
3051;DHT22;1535;51.098;6.414;2023-03-23T12:27:02;13.00;99.90
3051;DHT22;1535;51.098;6.414;2023-03-23T12:29:53;13.90;99.90
3051;DHT22;1535;51.098;6.414;2023-03-23T12:32:46;14.50;99.90
3051;DHT22;1535;51.098;6.414;2023-03-23T12:35:25;14.60;99.90
3051;DHT22;1535;51.098;6.414;2023-03-23T12:38:03;14.30;99.90
3051;DHT22;1535;51.098;6.414;2023-03-23T12:40:46;14.00;99.90
3051;DHT22;1535;51.098;6.414;2023-03-23T12:43:31;13.90;99.90
3051;DHT22;1535;51.098;6.414;2023-03-23T12:46:10;13.80;99.90
3051;DHT22;1535;51.098;6.414;2023-03-23T12:48:42;13.40;99.90
3051;DHT22;1535;51.098;6.414;2023-03-23T12:51:17;13.30;99.90
3051;DHT22;1535;51.098;6.414;2023-03-23T12:53:50;12.90;99.90
3051;DHT22;1535;51.098;6.414;2023-03-23T12:56:22;12.80;99.90
3051;DHT22;1535;51.098;6.414;2023-03-23T12:58:54;12.70;99.90
3051;DHT22;1535;51.098;6.414;2023-03-23T13:01:27;12.70;99.90
3051;DHT22;1535;51.098;6.414;2023-03-23T13:03:58;12.70;99.90
3051;DHT22;1535;51.098;6.414;2023-03-23T13:06:29;12.80;99.90
3051;DHT22;1535;51.098;6.414;2023-03-23T13:09:02;13.00;99.90
3051;DHT22;1535;51.098;6.414;2023-03-23T13:11:33;13.10;99.90
3051;DHT22;1535;51.098;6.414;2023-03-23T13:14:10;13.30;99.90
3051;DHT22;1535;51.098;6.414;2023-03-23T13:16:44;13.40;99.90
3051;DHT22;1535;51.098;6.414;2023-03-23T13:19:19;13.50;99.90
3051;DHT22;1535;51.098;6.414;2023-03-23T13:21:50;13.30;99.90
3051;DHT22;1535;51.098;6.414;2023-03-23T13:24:25;13.50;99.90
3051;DHT22;1535;51.098;6.414;2023-03-23T13:26:53;13.70;99.90
3051;DHT22;1535;51.098;6.414;2023-03-23T13:29:24;13.60;99.90
3051;DHT22;1535;51.098;6.414;2023-03-23T13:32:04;13.70;99.90
3051;DHT22;1535;51.098;6.414;2023-03-23T13:34:32;13.70;99.90
3051;DHT22;1535;51.098;6.414;2023-03-23T13:37:00;13.70;99.90
3051;DHT22;1535;51.098;6.414;2023-03-23T13:39:30;13.60;99.90
3051;DHT22;1535;51.098;6.414;2023-03-23T13:42:02;13.60;99.90
3051;DHT22;1535;51.098;6.414;2023-03-23T13:44:42;13.80;99.90
3051;DHT22;1535;51.098;6.414;2023-03-23T13:47:21;13.90;99.90
3051;DHT22;1535;51.098;6.414;2023-03-23T13:49:51;13.90;99.90
3051;DHT22;1535;51.098;6.414;2023-03-23T13:52:23;13.80;99.90
3051;DHT22;1535;51.098;6.414;2023-03-23T13:54:51;13.80;99.90
3051;DHT22;1535;51.098;6.414;2023-03-23T13:57:25;13.90;99.90
3051;DHT22;1535;51.098;6.414;2023-03-23T14:00:10;14.00;99.90
3051;DHT22;1535;51.098;6.414;2023-03-23T14:02:42;14.30;99.90
3051;DHT22;1535;51.098;6.414;2023-03-23T14:05:19;14.50;99.90
3051;DHT22;1535;51.098;6.414;2023-03-23T14:07:53;14.40;99.90
3051;DHT22;1535;51.098;6.414;2023-03-23T14:10:22;14.30;99.90
3051;DHT22;1535;51.098;6.414;2023-03-23T14:12:52;14.30;99.90
3051;DHT22;1535;51.098;6.414;2023-03-23T14:15:20;14.60;99.90
3051;DHT22;1535;51.098;6.414;2023-03-23T14:17:47;15.10;99.90
3051;DHT22;1535;51.098;6.414;2023-03-23T14:20:23;15.30;99.90
3051;DHT22;1535;51.098;6.414;2023-03-23T14:22:54;15.50;99.90
3051;DHT22;1535;51.098;6.414;2023-03-23T14:25:22;15.60;99.90
3051;DHT22;1535;51.098;6.414;2023-03-23T14:27:52;15.10;99.90
3051;DHT22;1535;51.098;6.414;2023-03-23T14:30:23;15.20;99.90
3051;DHT22;1535;51.098;6.414;2023-03-23T14:32:52;15.10;99.90
3051;DHT22;1535;51.098;6.414;2023-03-23T14:35:26;14.60;99.90
3051;DHT22;1535;51.098;6.414;2023-03-23T14:37:53;14.40;99.90
3051;DHT22;1535;51.098;6.414;2023-03-23T14:40:21;14.30;99.90
3051;DHT22;1535;51.098;6.414;2023-03-23T14:42:50;14.10;99.90
3051;DHT22;1535;51.098;6.414;2023-03-23T14:45:22;13.90;99.90
3051;DHT22;1535;51.098;6.414;2023-03-23T14:47:51;13.90;99.90
3051;DHT22;1535;51.098;6.414;2023-03-23T14:50:27;13.80;99.90
3051;DHT22;1535;51.098;6.414;2023-03-23T14:52:58;14.10;99.90
3051;DHT22;1535;51.098;6.414;2023-03-23T14:55:25;14.40;99.90
3051;DHT22;1535;51.098;6.414;2023-03-23T14:57:54;14.80;99.90
3051;DHT22;1535;51.098;6.414;2023-03-23T15:00:28;15.20;99.90
3051;DHT22;1535;51.098;6.414;2023-03-23T15:02:59;15.70;99.90
3051;DHT22;1535;51.098;6.414;2023-03-23T15:05:29;16.20;99.90
3051;DHT22;1535;51.098;6.414;2023-03-23T15:08:01;16.50;99.90
3051;DHT22;1535;51.098;6.414;2023-03-23T15:10:29;16.90;99.90
3051;DHT22;1535;51.098;6.414;2023-03-23T15:12:56;17.20;99.90
3051;DHT22;1535;51.098;6.414;2023-03-23T15:15:27;17.10;99.90
3051;DHT22;1535;51.098;6.414;2023-03-23T15:17:55;17.40;99.90
3051;DHT22;1535;51.098;6.414;2023-03-23T15:20:25;18.00;99.90
3051;DHT22;1535;51.098;6.414;2023-03-23T15:22:52;18.30;99.90
3051;DHT22;1535;51.098;6.414;2023-03-23T15:25:21;18.50;99.90
3051;DHT22;1535;51.098;6.414;2023-03-23T15:27:51;18.40;99.90
3051;DHT22;1535;51.098;6.414;2023-03-23T15:30:31;18.40;99.90
3051;DHT22;1535;51.098;6.414;2023-03-23T15:33:03;18.40;99.90
3051;DHT22;1535;51.098;6.414;2023-03-23T15:35:34;18.70;99.90
3051;DHT22;1535;51.098;6.414;2023-03-23T15:38:03;18.60;99.90
3051;DHT22;1535;51.098;6.414;2023-03-23T15:40:35;19.00;99.90
3051;DHT22;1535;51.098;6.414;2023-03-23T15:43:08;19.50;99.90
3051;DHT22;1535;51.098;6.414;2023-03-23T15:45:52;19.80;99.90
3051;DHT22;1535;51.098;6.414;2023-03-23T15:48:20;19.80;99.90
3051;DHT22;1535;51.098;6.414;2023-03-23T15:50:47;20.00;99.90
3051;DHT22;1535;51.098;6.414;2023-03-23T15:53:29;19.60;99.90
3051;DHT22;1535;51.098;6.414;2023-03-23T15:55:59;19.00;99.90
3051;DHT22;1535;51.098;6.414;2023-03-23T15:58:27;18.30;99.90
3051;DHT22;1535;51.098;6.414;2023-03-23T16:00:56;18.10;99.90
3051;DHT22;1535;51.098;6.414;2023-03-23T16:03:26;18.40;99.90
3051;DHT22;1535;51.098;6.414;2023-03-23T16:05:54;18.70;99.90
3051;DHT22;1535;51.098;6.414;2023-03-23T16:08:24;19.00;99.90
3051;DHT22;1535;51.098;6.414;2023-03-23T16:10:50;19.20;99.90
3051;DHT22;1535;51.098;6.414;2023-03-23T16:13:17;19.40;99.90
3051;DHT22;1535;51.098;6.414;2023-03-23T16:15:46;19.40;99.90
3051;DHT22;1535;51.098;6.414;2023-03-23T16:18:18;19.10;99.90
3051;DHT22;1535;51.098;6.414;2023-03-23T16:20:48;18.90;99.90
3051;DHT22;1535;51.098;6.414;2023-03-23T16:23:15;18.80;99.90